Saint Marks, Florida
Current Conditions -  °F | °C
As of 11:53 PM on Thursday 30 Oct 2014 (Local Time) from KTLH Reporting Station
Clear Clear  
Wind Chill: 50°   Ceiling: Unl
Heat Index: 50°   Visibility: 10mi
Dew Point: 43°   Wind: 0mph
Humidity: 77%   Direction: NA
Pressure: 29.96"   Gusts: NA
Location:  30.16°N, 84.21°W
Report Text: KTLH 310353Z AUTO 00000KT 10SM CLR 10/06 A2996 RMK AO2 SLP145 T01000061 $
Loading
Personal Weather Stations






























Interactive Weather Map New forecast layout! Learn more

10-Day Weather Forecast

Advertisements
Track Severe Weather on mobile